createdAt,value
2019-02-20T00:03:51.898Z,12.40
2019-02-20T00:06:38.783Z,9.90
2019-02-20T00:09:25.652Z,12.45
2019-02-20T00:12:32.868Z,16.90
2019-02-20T00:15:19.596Z,15.90
2019-02-20T00:18:06.476Z,18.25
2019-02-20T00:20:53.306Z,11.65
2019-02-20T00:23:40.158Z,13.10
2019-02-20T00:26:26.979Z,11.38
2019-02-20T00:29:13.854Z,12.68
2019-02-20T00:32:00.695Z,10.80
2019-02-20T00:34:47.565Z,14.25
2019-02-20T00:37:34.386Z,15.90
2019-02-20T00:40:21.247Z,14.80
2019-02-20T00:43:08.078Z,14.47
2019-02-20T00:46:14.456Z,19.55
2019-02-20T00:49:19.727Z,12.90
2019-02-20T00:52:06.006Z,13.28
2019-02-20T00:54:45.647Z,14.38
2019-02-20T00:57:25.897Z,12.65
2019-02-20T01:00:05.878Z,14.87
2019-02-20T01:02:45.917Z,14.83
2019-02-20T01:05:26.244Z,11.97
2019-02-20T01:08:06.213Z,15.40
2019-02-20T01:10:46.374Z,15.30
2019-02-20T01:13:26.349Z,10.30
2019-02-20T01:16:06.272Z,18.20
2019-02-20T01:18:46.458Z,22.58
2019-02-20T01:21:26.587Z,14.85
2019-02-20T01:24:06.707Z,13.08
2019-02-20T01:26:46.777Z,13.90
2019-02-20T01:29:26.811Z,13.72
2019-02-20T01:32:07.033Z,11.55
2019-02-20T01:34:47.215Z,14.87
2019-02-20T01:37:28.113Z,11.48
2019-02-20T01:40:08.289Z,17.25
2019-02-20T01:42:48.259Z,16.00
2019-02-20T01:45:28.288Z,11.78
2019-02-20T01:47:55.649Z,17.25
2019-02-20T01:50:22.984Z,11.03
2019-02-20T01:52:50.377Z,12.18
2019-02-20T01:55:17.733Z,16.65
2019-02-20T01:57:45.065Z,14.15
2019-02-20T02:00:12.562Z,14.85
2019-02-20T02:02:39.904Z,15.75
2019-02-20T02:05:14.813Z,13.20
2019-02-20T02:07:36.524Z,15.88
2019-02-20T02:10:04.377Z,14.45
2019-02-20T02:12:31.737Z,15.43
2019-02-20T02:14:59.091Z,10.40
2019-02-20T02:17:26.357Z,16.52
2019-02-20T02:19:53.733Z,18.92
2019-02-20T02:22:21.185Z,11.83
2019-02-20T02:24:48.443Z,11.35
2019-02-20T02:27:15.795Z,16.67
2019-02-20T02:29:43.184Z,12.82
2019-02-20T02:32:10.506Z,16.55
2019-02-20T02:34:38.191Z,16.77
2019-02-20T02:37:05.651Z,14.20
2019-02-20T02:39:32.925Z,13.40
2019-02-20T02:42:00.269Z,13.68
2019-02-20T02:44:27.645Z,12.60
2019-02-20T02:46:54.910Z,15.78
2019-02-20T02:49:22.336Z,15.23
2019-02-20T02:51:49.676Z,16.73
2019-02-20T02:54:17.021Z,16.00
2019-02-20T02:56:44.374Z,14.58
2019-02-20T02:59:11.755Z,17.02
2019-02-20T03:01:39.105Z,14.43
2019-02-20T03:04:06.514Z,15.15
2019-02-20T03:06:33.905Z,14.95
2019-02-20T03:09:01.335Z,18.20
2019-02-20T03:11:28.674Z,17.65
2019-02-20T03:13:56.020Z,12.73
2019-02-20T03:16:23.370Z,14.68
2019-02-20T03:18:50.730Z,13.28
2019-02-20T03:21:18.094Z,15.65
2019-02-20T03:23:45.327Z,16.48
2019-02-20T03:26:12.674Z,15.68
2019-02-20T03:28:40.260Z,13.43
2019-02-20T03:31:07.733Z,14.47
2019-02-20T03:33:35.227Z,24.40
2019-02-20T03:36:02.689Z,17.95
2019-02-20T03:38:49.545Z,14.25
2019-02-20T03:41:36.372Z,16.75
2019-02-20T03:44:23.227Z,13.50
2019-02-20T03:47:10.067Z,14.10
2019-02-20T03:49:56.817Z,16.02
2019-02-20T03:52:43.657Z,18.02
2019-02-20T03:55:30.528Z,20.25
2019-02-20T03:58:17.455Z,14.28
2019-02-20T04:01:04.312Z,13.80
2019-02-20T04:03:51.147Z,15.58
2019-02-20T04:06:38.056Z,14.68
2019-02-20T04:09:24.877Z,16.73
2019-02-20T04:12:11.746Z,16.45
2019-02-20T04:14:58.598Z,14.95
2019-02-20T04:17:45.441Z,15.63
2019-02-20T04:20:25.026Z,15.75
2019-02-20T04:23:05.184Z,15.75
2019-02-20T04:25:45.496Z,16.90
2019-02-20T04:28:25.516Z,15.25
2019-02-20T04:31:05.552Z,16.85
2019-02-20T04:33:45.842Z,13.83
2019-02-20T04:36:25.852Z,16.52
2019-02-20T04:39:05.851Z,16.70
2019-02-20T04:41:46.009Z,14.28
2019-02-20T04:44:26.273Z,16.87
2019-02-20T04:47:06.221Z,15.48
2019-02-20T04:49:46.535Z,18.23
2019-02-20T04:52:26.576Z,13.85
2019-02-20T04:55:06.454Z,18.52
2019-02-20T04:57:46.513Z,17.70
2019-02-20T05:00:26.452Z,15.45
2019-02-20T05:03:06.753Z,15.65
2019-02-20T05:05:46.993Z,14.83
2019-02-20T05:08:27.120Z,19.32
2019-02-20T05:11:07.177Z,15.30
2019-02-20T05:13:45.186Z,19.05
2019-02-20T05:16:32.061Z,14.28
2019-02-20T05:19:18.905Z,17.27
2019-02-20T05:22:00.498Z,15.55
2019-02-20T05:24:40.100Z,21.37
2019-02-20T05:27:20.069Z,11.97
2019-02-20T05:30:00.367Z,19.92
2019-02-20T05:32:40.215Z,14.85
2019-02-20T05:35:20.264Z,18.12
2019-02-20T05:38:00.365Z,18.87
2019-02-20T05:40:40.180Z,16.60
2019-02-20T05:43:20.511Z,19.05
2019-02-20T05:46:01.361Z,20.88
2019-02-20T05:48:41.490Z,20.25
2019-02-20T05:51:21.637Z,16.62
2019-02-20T05:54:01.921Z,16.30
2019-02-20T05:56:42.173Z,19.77
2019-02-20T05:59:22.103Z,14.65
2019-02-20T06:02:02.074Z,14.90
2019-02-20T06:04:43.103Z,19.42
2019-02-20T06:07:23.110Z,16.93
2019-02-20T06:10:03.106Z,21.17
2019-02-20T06:12:43.109Z,17.65
2019-02-20T06:15:23.565Z,17.42
2019-02-20T06:18:03.519Z,24.67
2019-02-20T06:20:43.638Z,19.48
2019-02-20T06:23:11.069Z,18.67
2019-02-20T06:25:38.425Z,18.50
2019-02-20T06:28:05.781Z,17.82
2019-02-20T06:30:33.009Z,18.67
2019-02-20T06:33:00.361Z,20.70
2019-02-20T06:35:27.801Z,18.92
2019-02-20T06:37:55.127Z,23.92
2019-02-20T06:40:42.042Z,18.90
2019-02-20T06:43:29.071Z,18.15
2019-02-20T06:45:56.393Z,21.27
2019-02-20T06:48:23.778Z,21.45
2019-02-20T06:50:51.140Z,21.62
2019-02-20T06:53:18.518Z,18.15
2019-02-20T06:56:05.356Z,21.12
2019-02-20T06:58:52.185Z,20.92
2019-02-20T07:01:39.017Z,27.37
2019-02-20T07:04:25.949Z,19.42
2019-02-20T07:07:15.945Z,21.35
2019-02-20T07:10:22.288Z,24.80
2019-02-20T07:13:28.604Z,24.37
2019-02-20T07:16:08.750Z,19.40
2019-02-20T07:18:48.871Z,15.63
2019-02-20T07:21:55.216Z,19.25
2019-02-20T07:25:03.436Z,25.00
2019-02-20T07:28:29.648Z,21.82
2019-02-20T07:31:16.477Z,21.97
2019-02-20T07:34:05.454Z,22.10
2019-02-20T07:37:11.995Z,22.02
2019-02-20T07:39:58.847Z,20.88
2019-02-20T07:42:45.665Z,23.50
2019-02-20T07:45:32.521Z,22.35
2019-02-20T07:48:19.337Z,22.02
2019-02-20T07:51:06.177Z,20.92
2019-02-20T07:53:53.042Z,21.75
2019-02-20T07:56:39.927Z,19.90
2019-02-20T07:59:26.767Z,20.97
2019-02-20T08:02:13.626Z,25.25
2019-02-20T08:05:00.558Z,20.48
2019-02-20T08:07:47.433Z,21.27
2019-02-20T08:10:34.209Z,23.02
2019-02-20T08:13:21.061Z,23.75
2019-02-20T08:16:00.762Z,22.07
2019-02-20T08:18:40.747Z,26.97
2019-02-20T08:21:20.699Z,25.02
2019-02-20T08:24:00.749Z,24.95
2019-02-20T08:26:40.699Z,25.50
2019-02-20T08:29:20.729Z,25.62
2019-02-20T08:32:00.769Z,24.87
2019-02-20T08:34:40.657Z,25.08
2019-02-20T08:37:20.630Z,26.93
2019-02-20T08:40:00.862Z,27.27
2019-02-20T08:42:40.831Z,34.53
2019-02-20T08:45:20.963Z,33.50
2019-02-20T08:48:01.095Z,29.80
2019-02-20T08:50:41.345Z,23.80
2019-02-20T08:53:21.459Z,30.07
2019-02-20T08:56:01.609Z,26.73
2019-02-20T08:58:41.816Z,30.20
2019-02-20T09:01:21.927Z,29.23
2019-02-20T09:04:01.731Z,33.60
2019-02-20T09:06:41.687Z,28.33
2019-02-20T09:09:21.775Z,31.53
2019-02-20T09:12:01.992Z,31.00
2019-02-20T09:14:41.939Z,33.83
2019-02-20T09:17:22.013Z,30.40
2019-02-20T09:20:01.886Z,36.10
2019-02-20T09:22:41.970Z,37.07
2019-02-20T09:25:22.084Z,36.17
2019-02-20T09:28:02.116Z,33.00
2019-02-20T09:30:42.009Z,33.93
2019-02-20T09:33:22.191Z,36.43
2019-02-20T09:36:02.238Z,31.83
2019-02-20T09:38:42.385Z,33.07
2019-02-20T09:41:22.592Z,38.73
2019-02-20T09:44:02.574Z,38.60
2019-02-20T09:46:42.523Z,35.77
2019-02-20T09:49:22.796Z,32.20
2019-02-20T09:52:02.759Z,36.03
2019-02-20T09:54:42.897Z,42.23
2019-02-20T09:57:22.902Z,33.60
2019-02-20T10:00:03.028Z,32.70
2019-02-20T10:02:43.054Z,36.10
2019-02-20T10:05:23.228Z,33.23
2019-02-20T10:08:04.478Z,33.83
2019-02-20T10:10:44.171Z,27.27
2019-02-20T10:13:24.320Z,28.30
2019-02-20T10:16:04.490Z,27.77
2019-02-20T10:18:44.447Z,26.97
2019-02-20T10:21:24.545Z,30.33
2019-02-20T10:24:04.816Z,27.17
2019-02-20T10:26:44.658Z,32.97
2019-02-20T10:29:24.549Z,30.23
2019-02-20T10:32:04.938Z,30.00
2019-02-20T10:34:45.023Z,27.27
2019-02-20T10:37:25.174Z,27.57
2019-02-20T10:40:05.198Z,28.60
2019-02-20T10:42:45.233Z,29.37
2019-02-20T10:45:24.982Z,24.67
2019-02-20T10:48:06.809Z,26.70
2019-02-20T10:50:46.995Z,24.83
2019-02-20T10:53:26.906Z,25.47
2019-02-20T10:56:09.618Z,22.07
2019-02-20T10:58:49.216Z,26.13
2019-02-20T11:01:29.119Z,23.93
2019-02-20T11:04:09.051Z,19.63
2019-02-20T11:06:48.923Z,19.90
2019-02-20T11:09:29.039Z,17.97
2019-02-20T11:12:08.923Z,17.23
2019-02-20T11:14:49.121Z,15.43
2019-02-20T11:17:29.154Z,14.93
2019-02-20T11:20:09.538Z,15.47
2019-02-20T11:22:49.459Z,20.17
2019-02-20T11:25:31.259Z,15.33
2019-02-20T11:28:11.748Z,16.37
2019-02-20T11:30:51.854Z,17.33
2019-02-20T11:33:31.966Z,16.83
2019-02-20T11:36:11.842Z,17.00
2019-02-20T11:38:51.748Z,13.40
2019-02-20T11:41:31.866Z,17.00
2019-02-20T11:44:20.637Z,13.77
2019-02-20T11:46:54.204Z,12.63
2019-02-20T11:49:34.343Z,13.00
2019-02-20T11:52:14.465Z,11.50
2019-02-20T11:54:54.394Z,9.07
2019-02-20T11:57:34.363Z,9.03
2019-02-20T12:00:14.383Z,8.07
2019-02-20T12:02:54.423Z,9.27
2019-02-20T12:05:34.787Z,13.00
2019-02-20T12:08:14.953Z,11.27
2019-02-20T12:10:54.985Z,9.97
2019-02-20T12:13:34.963Z,11.40
2019-02-20T12:16:15.006Z,11.17
2019-02-20T12:18:54.935Z,9.50
2019-02-20T12:21:34.800Z,9.90
2019-02-20T12:24:14.897Z,14.97
2019-02-20T12:26:54.738Z,11.27
2019-02-20T12:29:34.681Z,9.80
2019-02-20T12:32:14.690Z,9.27
2019-02-20T12:34:55.057Z,11.63
2019-02-20T12:37:35.234Z,8.53
2019-02-20T12:40:15.239Z,7.87
2019-02-20T12:42:55.275Z,10.00
2019-02-20T12:45:35.116Z,8.43
2019-02-20T12:48:15.079Z,10.93
2019-02-20T12:50:54.882Z,8.60
2019-02-20T12:53:35.010Z,8.80
2019-02-20T12:56:15.163Z,11.93
2019-02-20T12:58:55.259Z,10.57
2019-02-20T13:01:35.286Z,9.40
2019-02-20T13:04:15.233Z,10.90
2019-02-20T13:06:59.505Z,8.00
2019-02-20T13:09:37.569Z,9.87
2019-02-20T13:15:05.873Z,9.80
2019-02-20T13:17:45.997Z,10.37
2019-02-20T13:20:25.998Z,8.97
2019-02-20T13:23:06.080Z,9.73
2019-02-20T13:25:46.195Z,8.63
2019-02-20T13:28:26.242Z,10.20
2019-02-20T13:31:06.326Z,11.77
2019-02-20T13:33:46.467Z,10.17
2019-02-20T13:36:26.568Z,7.53
2019-02-20T13:39:06.763Z,9.47
2019-02-20T13:41:46.948Z,9.00
2019-02-20T13:44:27.012Z,10.17
2019-02-20T13:47:07.183Z,12.27
2019-02-20T13:49:47.255Z,7.70
2019-02-20T13:52:27.172Z,8.13
2019-02-20T13:55:07.278Z,7.60
2019-02-20T13:57:47.462Z,7.80
2019-02-20T14:00:27.424Z,7.37
2019-02-20T14:03:07.451Z,10.03
2019-02-20T14:05:47.488Z,7.43
2019-02-20T14:08:27.767Z,8.13
2019-02-20T14:11:07.773Z,9.93
2019-02-20T14:13:47.781Z,10.70
2019-02-20T14:16:27.567Z,7.90
2019-02-20T14:19:07.535Z,6.97
2019-02-20T14:21:47.441Z,7.97
2019-02-20T14:24:27.821Z,8.23
2019-02-20T14:27:10.667Z,7.53
2019-02-20T14:29:50.095Z,7.97
2019-02-20T14:32:30.254Z,6.53
2019-02-20T14:35:10.498Z,6.83
2019-02-20T14:37:50.650Z,8.10
2019-02-20T14:40:30.745Z,7.87
2019-02-20T14:43:10.889Z,10.70
2019-02-20T14:45:51.101Z,8.27
2019-02-20T14:48:31.052Z,7.43
2019-02-20T14:51:11.157Z,8.27
2019-02-20T14:53:51.138Z,8.83
2019-02-20T14:56:31.260Z,7.53
2019-02-20T14:59:11.290Z,8.87
2019-02-20T15:01:51.269Z,10.77
2019-02-20T15:04:31.463Z,14.23
2019-02-20T15:07:11.354Z,12.13
2019-02-20T15:09:51.259Z,10.10
2019-02-20T15:12:31.337Z,14.37
2019-02-20T15:15:11.608Z,9.83
2019-02-20T15:17:51.602Z,10.90
2019-02-20T15:20:31.355Z,11.90
2019-02-20T15:23:11.377Z,13.37
2019-02-20T15:25:51.442Z,10.40
2019-02-20T15:28:33.375Z,8.40
2019-02-20T15:31:13.553Z,12.03
2019-02-20T15:33:53.655Z,11.63
2019-02-20T15:36:33.821Z,10.37
2019-02-20T15:39:13.880Z,10.23
2019-02-20T15:41:53.939Z,9.23
2019-02-20T15:44:33.986Z,11.57
2019-02-20T15:47:13.936Z,8.80
2019-02-20T15:49:53.933Z,10.33
2019-02-20T15:52:34.072Z,9.40
2019-02-20T15:55:14.026Z,8.23
2019-02-20T15:57:54.198Z,8.37
2019-02-20T16:00:34.398Z,10.37
2019-02-20T16:03:14.506Z,14.43
2019-02-20T16:05:54.395Z,10.70
2019-02-20T16:08:34.458Z,13.67
2019-02-20T16:11:14.462Z,10.07
2019-02-20T16:13:54.435Z,10.90
2019-02-20T16:16:34.574Z,9.13
2019-02-20T16:19:14.512Z,8.83
2019-02-20T16:21:54.571Z,8.87
2019-02-20T16:24:34.574Z,9.80
2019-02-20T16:27:14.658Z,10.53
2019-02-20T16:29:54.694Z,9.50
2019-02-20T16:32:34.730Z,10.80
2019-02-20T16:35:14.451Z,10.20
2019-02-20T16:37:54.584Z,9.63
2019-02-20T16:40:34.761Z,14.87
2019-02-20T16:43:14.845Z,9.87
2019-02-20T16:45:54.847Z,8.63
2019-02-20T16:48:34.849Z,9.83
2019-02-20T16:51:14.594Z,14.13
2019-02-20T16:53:54.654Z,9.77
2019-02-20T16:56:34.713Z,11.87
2019-02-20T16:59:14.729Z,16.60
2019-02-20T17:01:54.848Z,13.70
2019-02-20T17:04:35.005Z,13.57
2019-02-20T17:07:14.899Z,16.63
2019-02-20T17:09:54.891Z,13.47
2019-02-20T17:12:35.087Z,13.40
2019-02-20T17:15:15.022Z,12.80
2019-02-20T17:17:55.079Z,14.03
2019-02-20T17:20:35.199Z,10.57
2019-02-20T17:23:15.278Z,10.57
2019-02-20T17:25:55.378Z,12.17
2019-02-20T17:28:35.355Z,16.07
2019-02-20T17:31:15.400Z,12.30
2019-02-20T17:33:55.430Z,14.40
2019-02-20T17:36:35.558Z,13.83
2019-02-20T17:39:15.601Z,11.97
2019-02-20T17:41:55.446Z,15.57
2019-02-20T17:44:35.661Z,21.53
2019-02-20T17:47:15.536Z,25.60
2019-02-20T17:49:55.620Z,15.93
2019-02-20T17:52:35.893Z,14.93
2019-02-20T17:55:15.671Z,18.77
2019-02-20T17:57:55.668Z,21.17
2019-02-20T18:00:36.950Z,19.00
2019-02-20T18:03:17.281Z,15.47
2019-02-20T18:05:57.560Z,18.70
2019-02-20T18:08:38.818Z,17.50
2019-02-20T18:11:18.632Z,13.80
2019-02-20T18:13:58.739Z,17.57
2019-02-20T18:16:38.735Z,16.93
2019-02-20T18:19:18.758Z,15.17
2019-02-20T18:21:58.973Z,14.00
2019-02-20T18:24:39.372Z,20.07
2019-02-20T18:27:19.427Z,13.77
2019-02-20T18:29:59.610Z,15.63
2019-02-20T18:32:39.430Z,18.73
2019-02-20T18:35:19.672Z,20.80
2019-02-20T18:37:59.813Z,13.13
2019-02-20T18:40:39.890Z,18.30
2019-02-20T18:43:19.929Z,15.00
2019-02-20T18:45:59.798Z,17.77
2019-02-20T18:48:39.846Z,15.47
2019-02-20T18:51:20.046Z,16.00
2019-02-20T18:54:00.148Z,22.47
2019-02-20T18:56:39.894Z,19.10
2019-02-20T18:59:19.857Z,16.37
2019-02-20T19:01:59.966Z,14.13
2019-02-20T19:04:39.956Z,14.50
2019-02-20T19:07:20.091Z,15.43
2019-02-20T19:10:00.261Z,12.47
2019-02-20T19:12:40.351Z,16.87
2019-02-20T19:15:20.569Z,13.33
2019-02-20T19:18:00.621Z,17.90
2019-02-20T19:20:41.453Z,14.90
2019-02-20T19:23:21.463Z,15.90
2019-02-20T19:26:01.650Z,18.30
2019-02-20T19:28:44.309Z,14.80
2019-02-20T19:31:23.858Z,13.40
2019-02-20T19:34:03.953Z,16.43
2019-02-20T19:37:10.332Z,16.63
2019-02-20T19:39:59.982Z,17.20
2019-02-20T19:43:06.400Z,14.20
2019-02-20T19:46:12.768Z,16.55
2019-02-20T19:49:13.560Z,20.92
2019-02-20T19:52:20.161Z,17.82
2019-02-20T19:55:10.028Z,18.00
2019-02-20T19:58:31.448Z,15.18
2019-02-20T20:02:01.465Z,14.35
2019-02-20T20:04:58.843Z,15.95
2019-02-20T20:08:03.070Z,15.30
2019-02-20T20:11:09.527Z,18.32
2019-02-20T20:14:11.400Z,17.98
2019-02-20T20:17:17.963Z,19.02
2019-02-20T20:20:10.438Z,19.37
2019-02-20T20:23:15.787Z,15.72
2019-02-20T20:26:22.233Z,20.25
2019-02-20T20:29:05.857Z,17.60
2019-02-20T20:31:43.895Z,16.90
2019-02-20T20:34:23.979Z,20.08
2019-02-20T20:37:03.860Z,20.72
2019-02-20T20:39:44.398Z,26.87
2019-02-20T20:42:24.354Z,24.02
2019-02-20T20:45:04.472Z,31.35
2019-02-20T20:47:44.484Z,20.68
2019-02-20T20:50:24.666Z,22.75
2019-02-20T20:53:04.967Z,24.20
2019-02-20T20:55:45.148Z,27.42
2019-02-20T20:58:25.146Z,24.98
2019-02-20T21:01:05.334Z,25.05
2019-02-20T21:03:45.315Z,28.85
2019-02-20T21:06:25.402Z,22.40
2019-02-20T21:09:05.593Z,22.42
2019-02-20T21:11:45.737Z,22.82
2019-02-20T21:14:25.897Z,19.37
2019-02-20T21:17:06.176Z,19.32
2019-02-20T21:19:46.470Z,21.90
2019-02-20T21:22:26.327Z,22.20
2019-02-20T21:25:06.342Z,26.12
2019-02-20T21:27:46.894Z,22.13
2019-02-20T21:30:26.813Z,24.10
2019-02-20T21:33:07.100Z,19.02
2019-02-20T21:35:47.276Z,21.45
2019-02-20T21:38:27.433Z,19.57
2019-02-20T21:41:07.653Z,23.50
2019-02-20T21:43:47.474Z,23.73
2019-02-20T21:46:27.619Z,23.67
2019-02-20T21:49:07.758Z,19.48
2019-02-20T21:51:47.905Z,20.97
2019-02-20T21:54:27.843Z,20.23
2019-02-20T21:57:07.918Z,19.60
2019-02-20T21:59:48.135Z,23.02
2019-02-20T22:02:28.212Z,21.85
2019-02-20T22:05:08.301Z,24.67
2019-02-20T22:07:48.133Z,18.40
2019-02-20T22:10:28.201Z,21.33
2019-02-20T22:13:08.301Z,17.37
2019-02-20T22:15:48.556Z,17.75
2019-02-20T22:18:28.572Z,19.70
2019-02-20T22:21:08.510Z,20.82
2019-02-20T22:23:48.811Z,19.57
2019-02-20T22:26:29.123Z,19.85
2019-02-20T22:29:09.026Z,20.70
2019-02-20T22:31:49.163Z,17.75
2019-02-20T22:34:29.105Z,15.63
2019-02-20T22:37:09.254Z,15.28
2019-02-20T22:39:49.350Z,18.82
2019-02-20T22:42:29.441Z,19.52
2019-02-20T22:45:09.520Z,22.85
2019-02-20T22:47:49.632Z,18.15
2019-02-20T22:50:29.841Z,16.70
2019-02-20T22:53:09.952Z,18.65
2019-02-20T22:55:49.965Z,18.73
2019-02-20T22:58:30.002Z,17.35
2019-02-20T23:01:10.054Z,17.15
2019-02-20T23:03:50.093Z,16.57
2019-02-20T23:06:30.216Z,19.00
2019-02-20T23:09:10.384Z,18.77
2019-02-20T23:11:50.922Z,18.57
2019-02-20T23:14:51.306Z,19.80
2019-02-20T23:17:38.186Z,20.40
2019-02-20T23:20:25.042Z,17.82
2019-02-20T23:23:11.871Z,19.42
2019-02-20T23:25:58.813Z,16.15
2019-02-20T23:28:45.655Z,14.60
2019-02-20T23:31:25.382Z,20.60
2019-02-20T23:34:05.519Z,18.37
2019-02-20T23:36:45.655Z,18.87
2019-02-20T23:39:25.530Z,18.05
2019-02-20T23:42:05.628Z,18.50
2019-02-20T23:44:45.338Z,17.73
2019-02-20T23:47:28.440Z,17.30
2019-02-20T23:52:50.644Z,17.62
2019-02-20T23:55:30.553Z,18.65
2019-02-20T23:58:10.884Z,18.17
